Time;durP1;ratioP1;P1;durP2;ratioP2;P2;SDS_P1;SDS_P2;PMS_P1;PMS_P2;Temp;Humidity;BMP_temperature;BMP_pressure;BME280_temperature;BME280_humidity;BME280_pressure;Samples;Min_cycle;Max_cycle;Signal;HPM_P1;HPM_P2
2020/12/19 00:01:58;;;;;;;4.93;1.92;;;11.50;99.90;;;;;;5009804;28;20220;-27
2020/12/19 00:04:42;;;;;;;3.72;1.75;;;11.50;99.90;;;;;;5010043;28;20199;-27
2020/12/19 00:07:12;;;;;;;2.45;1.80;;;11.40;99.90;;;;;;5009278;28;20203;-26
2020/12/19 00:09:43;;;;;;;2.42;1.52;;;11.40;99.90;;;;;;5010003;28;20220;-26
2020/12/19 00:12:14;;;;;;;3.30;1.77;;;11.30;99.90;;;;;;5012528;28;20274;-27
2020/12/19 00:14:44;;;;;;;3.70;1.65;;;11.30;99.90;;;;;;5009342;28;20744;-27
2020/12/19 00:17:14;;;;;;;2.22;1.58;;;11.30;99.90;;;;;;5008920;28;20762;-26
2020/12/19 00:19:45;;;;;;;2.13;1.90;;;11.30;99.90;;;;;;5009657;28;20211;-27
2020/12/19 00:22:15;;;;;;;2.42;1.60;;;11.20;99.90;;;;;;5008935;28;20764;-27
2020/12/19 00:24:45;;;;;;;4.95;2.20;;;11.20;99.90;;;;;;5009244;28;20212;-27
2020/12/19 00:27:16;;;;;;;7.63;2.60;;;11.20;99.90;;;;;;5009083;28;20203;-27
2020/12/19 00:29:46;;;;;;;3.70;2.17;;;11.20;99.90;;;;;;5008943;28;20591;-27
2020/12/19 00:32:16;;;;;;;5.70;2.40;;;11.20;99.90;;;;;;5009425;28;20296;-27
2020/12/19 00:34:55;;;;;;;3.75;2.13;;;11.10;99.90;;;;;;5009534;28;20191;-27
2020/12/19 00:37:26;;;;;;;2.13;1.92;;;11.10;99.90;;;;;;4998435;28;20262;-27
2020/12/19 00:39:56;;;;;;;5.32;2.28;;;11.10;99.90;;;;;;5005686;28;20617;-27
2020/12/19 00:42:27;;;;;;;3.88;1.80;;;11.10;99.90;;;;;;4993229;28;20223;-27
2020/12/19 00:44:57;;;;;;;4.57;2.47;;;11.10;99.90;;;;;;5009443;28;20192;-27
2020/12/19 00:47:27;;;;;;;2.65;2.45;;;11.10;99.90;;;;;;5009435;28;20208;-27
2020/12/19 00:49:57;;;;;;;1.92;1.73;;;11.10;99.90;;;;;;5003346;28;20214;-27
2020/12/19 00:52:27;;;;;;;1.50;1.40;;;11.10;99.90;;;;;;5008528;28;20232;-27
2020/12/19 00:54:57;;;;;;;2.45;1.80;;;11.10;99.90;;;;;;5009030;28;20201;-27
2020/12/19 00:57:32;;;;;;;3.63;2.20;;;11.00;99.90;;;;;;5009128;28;20227;-27
2020/12/19 01:00:03;;;;;;;3.05;1.73;;;11.00;99.90;;;;;;5009853;28;20191;-26
2020/12/19 01:02:37;;;;;;;1.90;1.80;;;11.00;99.90;;;;;;5009343;28;20231;-27
2020/12/19 01:05:15;;;;;;;4.18;2.42;;;11.10;99.90;;;;;;5009844;28;20278;-27
2020/12/19 01:07:45;;;;;;;5.57;2.35;;;11.10;99.90;;;;;;5013252;28;20203;-27
2020/12/19 01:10:15;;;;;;;4.43;2.10;;;11.00;99.90;;;;;;5012285;28;20305;-27
2020/12/19 01:12:46;;;;;;;2.63;1.70;;;11.00;99.90;;;;;;5011384;28;20702;-27
2020/12/19 01:15:16;;;;;;;2.40;1.83;;;11.00;99.90;;;;;;5011500;28;20257;-27
2020/12/19 01:17:46;;;;;;;1.80;1.70;;;11.10;99.90;;;;;;5012895;28;20269;-28
2020/12/19 01:20:17;;;;;;;7.90;2.28;;;11.00;99.90;;;;;;5012925;28;20196;-26
2020/12/19 01:22:47;;;;;;;4.57;2.22;;;11.00;99.90;;;;;;5011289;28;20682;-26
2020/12/19 01:25:17;;;;;;;4.10;1.80;;;11.00;99.90;;;;;;5007793;28;20192;-26
2020/12/19 01:27:48;;;;;;;3.97;2.05;;;11.10;99.90;;;;;;5000566;28;20207;-26
2020/12/19 01:30:18;;;;;;;3.08;2.00;;;11.10;99.90;;;;;;5011194;28;20286;-26
2020/12/19 01:32:49;;;;;;;7.35;1.95;;;11.10;99.90;;;;;;5010369;28;20246;-26
2020/12/19 01:35:37;;;;;;;5.43;2.38;;;11.10;99.90;;;;;;5000168;28;20272;-27
2020/12/19 01:38:07;;;;;;;2.55;1.75;;;11.10;99.90;;;;;;5013023;28;20205;-26
2020/12/19 01:40:37;;;;;;;2.80;1.40;;;11.10;99.90;;;;;;5012712;28;20258;-26
2020/12/19 01:43:09;;;;;;;3.45;2.00;;;11.10;99.90;;;;;;5012221;28;20212;-26
2020/12/19 01:45:39;;;;;;;4.40;1.77;;;11.10;99.90;;;;;;5011759;28;20215;-27
2020/12/19 01:48:17;;;;;;;1.98;1.50;;;11.00;99.90;;;;;;5008289;28;20212;-26
2020/12/19 01:50:48;;;;;;;3.83;1.70;;;11.10;99.90;;;;;;5011980;28;20225;-26
2020/12/19 01:53:21;;;;;;;2.50;1.58;;;11.00;99.90;;;;;;5011974;28;20697;-26
2020/12/19 01:55:54;;;;;;;5.75;2.00;;;10.80;99.90;;;;;;5011579;28;20199;-27
2020/12/19 01:58:25;;;;;;;3.78;1.98;;;10.60;99.90;;;;;;5011481;28;20250;-26
2020/12/19 02:00:57;;;;;;;2.92;2.65;;;10.40;99.90;;;;;;5004469;28;20203;-27
2020/12/19 02:03:37;;;;;;;3.80;1.77;;;10.10;99.90;;;;;;5012439;28;20243;-27
2020/12/19 02:06:09;;;;;;;11.73;4.85;;;9.90;99.90;;;;;;5012140;28;20600;-27
2020/12/19 02:08:39;;;;;;;4.20;2.42;;;9.70;99.90;;;;;;4992672;28;20188;-26
2020/12/19 02:11:09;;;;;;;3.40;2.00;;;9.60;99.90;;;;;;5000113;28;20235;-26
2020/12/19 02:13:40;;;;;;;4.90;2.47;;;9.40;99.90;;;;;;5010249;28;20223;-26
2020/12/19 02:16:16;;;;;;;4.00;2.47;;;9.30;99.90;;;;;;5010926;28;20302;-26
2020/12/19 02:18:47;;;;;;;3.13;1.90;;;9.30;99.90;;;;;;5011756;28;20187;-26
2020/12/19 02:21:17;;;;;;;4.38;2.20;;;9.20;99.90;;;;;;5008119;28;20188;-26
2020/12/19 02:23:49;;;;;;;5.45;3.03;;;9.10;99.90;;;;;;5012378;28;20207;-26
2020/12/19 02:26:19;;;;;;;3.95;2.40;;;9.00;99.90;;;;;;5011189;28;20191;-26
2020/12/19 02:28:49;;;;;;;4.18;2.70;;;9.00;99.90;;;;;;5011213;28;20242;-26
2020/12/19 02:31:20;;;;;;;4.90;2.20;;;9.00;99.90;;;;;;5011296;28;20195;-26
2020/12/19 02:33:50;;;;;;;2.67;2.47;;;9.00;99.90;;;;;;5011543;28;20227;-26
2020/12/19 02:36:20;;;;;;;3.85;2.60;;;9.00;99.90;;;;;;5011227;28;20195;-25
2020/12/19 02:38:51;;;;;;;3.05;2.70;;;9.00;99.90;;;;;;5011133;28;20207;-26
2020/12/19 02:41:21;;;;;;;3.58;2.70;;;9.00;99.90;;;;;;5010574;28;20334;-26
2020/12/19 02:43:55;;;;;;;2.65;2.42;;;9.00;99.90;;;;;;5000935;28;20207;-26
2020/12/19 02:46:25;;;;;;;4.75;2.47;;;9.00;99.90;;;;;;5006528;28;20289;-27
2020/12/19 02:48:55;;;;;;;6.35;2.60;;;9.00;99.90;;;;;;5008860;28;20204;-25
2020/12/19 02:51:26;;;;;;;3.50;2.28;;;9.00;99.90;;;;;;5007804;28;20200;-26
2020/12/19 02:53:57;;;;;;;3.25;2.70;;;9.00;99.90;;;;;;5000390;28;20219;-26
2020/12/19 02:56:27;;;;;;;3.13;2.10;;;9.00;99.90;;;;;;5009629;28;20287;-26
2020/12/19 02:58:57;;;;;;;2.38;2.20;;;8.90;99.90;;;;;;5010646;28;20207;-26
2020/12/19 03:01:31;;;;;;;3.95;2.70;;;8.90;99.90;;;;;;5006604;28;20592;-26
2020/12/19 03:04:01;;;;;;;2.72;2.33;;;8.90;99.90;;;;;;5011250;28;20314;-27
2020/12/19 03:06:34;;;;;;;3.05;2.85;;;8.90;99.90;;;;;;5011064;28;20203;-26
2020/12/19 03:09:06;;;;;;;3.05;2.75;;;8.80;99.90;;;;;;5010975;28;20545;-26
2020/12/19 03:11:36;;;;;;;3.33;3.00;;;8.80;99.90;;;;;;5010787;28;20235;-27
2020/12/19 03:14:06;;;;;;;4.15;2.88;;;8.80;99.90;;;;;;5006162;28;20230;-27
2020/12/19 03:16:36;;;;;;;3.42;3.13;;;8.70;99.90;;;;;;5010712;28;20207;-27
2020/12/19 03:19:06;;;;;;;3.92;3.00;;;8.70;99.90;;;;;;5010826;28;20282;-27
2020/12/19 03:21:36;;;;;;;3.25;2.55;;;8.70;99.90;;;;;;5010762;28;20204;-27
2020/12/19 03:24:07;;;;;;;2.35;2.00;;;8.60;99.90;;;;;;5010659;28;20207;-27
2020/12/19 03:26:37;;;;;;;3.47;3.17;;;8.70;99.90;;;;;;5010214;28;20219;-27
2020/12/19 03:29:07;;;;;;;3.33;2.42;;;8.60;99.90;;;;;;5009612;28;20203;-27
2020/12/19 03:31:38;;;;;;;2.92;2.72;;;8.60;99.90;;;;;;5010868;28;20199;-27
2020/12/19 03:34:08;;;;;;;3.33;2.30;;;8.70;99.90;;;;;;5010976;28;20215;-27
2020/12/19 03:36:44;;;;;;;2.95;2.58;;;8.70;99.90;;;;;;5010461;28;20195;-27
2020/12/19 03:39:15;;;;;;;2.50;2.30;;;8.70;99.90;;;;;;4994269;28;20253;-27
2020/12/19 03:41:45;;;;;;;2.95;2.65;;;8.70;99.90;;;;;;5010133;28;20207;-26
2020/12/19 03:44:15;;;;;;;2.55;2.35;;;8.70;99.90;;;;;;5009651;28;20210;-27
2020/12/19 03:46:45;;;;;;;2.53;2.38;;;8.80;99.90;;;;;;5008808;28;20690;-26
2020/12/19 03:49:16;;;;;;;2.35;2.13;;;8.90;99.90;;;;;;5009687;28;20275;-27
2020/12/19 03:51:46;;;;;;;2.65;2.45;;;8.90;99.90;;;;;;4999482;28;20196;-27
2020/12/19 03:54:17;;;;;;;3.90;2.63;;;8.90;99.90;;;;;;5009511;28;20227;-27
2020/12/19 03:56:47;;;;;;;3.13;2.53;;;8.90;99.90;;;;;;5009455;28;20190;-27
2020/12/19 03:59:17;;;;;;;4.15;3.88;;;9.00;99.90;;;;;;5008594;28;20199;-27
2020/12/19 04:01:47;;;;;;;6.05;5.50;;;9.00;99.90;;;;;;5009120;28;20580;-27
2020/12/19 04:04:18;;;;;;;2.67;2.35;;;9.00;99.90;;;;;;5008730;28;20196;-27
2020/12/19 04:07:01;;;;;;;2.60;2.40;;;9.00;99.90;;;;;;5010056;28;20600;-27
2020/12/19 04:09:32;;;;;;;2.17;2.05;;;9.00;99.90;;;;;;5007789;28;20204;-27
2020/12/19 04:12:02;;;;;;;4.15;3.75;;;9.00;99.90;;;;;;5008898;28;20732;-27
2020/12/19 04:14:38;;;;;;;2.50;2.30;;;9.00;99.90;;;;;;5011626;28;20226;-27
2020/12/19 04:17:10;;;;;;;2.70;2.50;;;9.00;99.90;;;;;;5008441;28;20786;-27
2020/12/19 04:19:41;;;;;;;3.03;2.80;;;9.00;99.90;;;;;;5009103;28;20192;-27
2020/12/19 04:22:11;;;;;;;3.03;2.58;;;9.10;99.90;;;;;;5005512;28;20196;-27
2020/12/19 04:24:42;;;;;;;3.20;2.90;;;9.10;99.90;;;;;;5005032;28;20643;-27
2020/12/19 04:27:12;;;;;;;2.75;2.50;;;9.10;99.90;;;;;;5008914;28;20265;-27
2020/12/19 04:29:42;;;;;;;3.28;2.97;;;9.10;99.90;;;;;;5009587;28;20207;-26
2020/12/19 04:32:12;;;;;;;3.05;2.85;;;9.10;99.90;;;;;;5000972;28;20199;-26
2020/12/19 04:34:42;;;;;;;2.80;2.60;;;9.20;99.90;;;;;;5009963;28;20286;-26
2020/12/19 04:37:22;;;;;;;3.10;2.70;;;9.20;99.90;;;;;;4994517;28;20266;-26
2020/12/19 04:39:53;;;;;;;2.60;2.50;;;9.20;99.90;;;;;;5008442;28;20223;-26
2020/12/19 04:42:24;;;;;;;2.55;2.35;;;9.30;99.90;;;;;;5009527;28;20253;-26
2020/12/19 04:44:54;;;;;;;2.70;2.50;;;9.20;99.90;;;;;;5009458;28;20188;-26
2020/12/19 04:47:24;;;;;;;2.65;2.45;;;9.30;99.90;;;;;;5009494;28;20221;-27
2020/12/19 04:49:55;;;;;;;2.40;2.20;;;9.30;99.90;;;;;;5009102;28;20554;-26
2020/12/19 04:52:25;;;;;;;5.05;3.20;;;9.30;99.90;;;;;;5008942;28;20258;-26
2020/12/19 04:54:57;;;;;;;3.00;2.55;;;9.30;99.90;;;;;;5009768;28;20515;-27
2020/12/19 04:57:27;;;;;;;5.60;5.10;;;9.30;99.90;;;;;;5008724;28;20187;-28
2020/12/19 04:59:57;;;;;;;3.40;3.13;;;9.30;99.90;;;;;;5009120;28;20210;-27
2020/12/19 05:02:27;;;;;;;4.35;2.88;;;9.30;99.90;;;;;;5009256;28;20223;-27
2020/12/19 05:05:04;;;;;;;2.30;2.20;;;9.30;99.90;;;;;;5009466;28;20299;-27
2020/12/19 05:07:41;;;;;;;6.50;5.90;;;9.30;99.90;;;;;;5009354;28;20282;-27
2020/12/19 05:10:12;;;;;;;3.05;2.80;;;9.40;99.90;;;;;;5008140;28;20242;-27
2020/12/19 05:12:51;;;;;;;3.05;2.80;;;9.40;99.90;;;;;;5008560;28;20273;-27
2020/12/19 05:15:22;;;;;;;2.70;2.50;;;9.50;99.90;;;;;;5008337;28;20271;-27
2020/12/19 05:17:56;;;;;;;2.75;2.50;;;9.40;99.90;;;;;;5008407;28;20227;-26
2020/12/19 05:20:29;;;;;;;2.20;2.10;;;9.50;99.90;;;;;;4998334;28;20258;-26
2020/12/19 05:22:59;;;;;;;2.83;2.45;;;9.60;99.90;;;;;;4992373;28;20196;-27
2020/12/19 05:25:37;;;;;;;2.45;2.25;;;9.60;99.90;;;;;;5008481;28;20199;-27
2020/12/19 05:28:08;;;;;;;2.35;2.25;;;9.60;99.90;;;;;;5008359;28;20676;-27
2020/12/19 05:30:39;;;;;;;2.67;2.47;;;9.60;99.90;;;;;;5008434;28;20547;-27
2020/12/19 05:33:11;;;;;;;2.45;2.25;;;9.60;99.90;;;;;;5008584;28;20211;-27
2020/12/19 05:35:41;;;;;;;2.70;2.30;;;9.60;99.90;;;;;;5008692;28;20558;-28
2020/12/19 05:38:11;;;;;;;3.00;2.80;;;9.60;99.90;;;;;;5007207;28;20244;-27
2020/12/19 05:40:43;;;;;;;6.32;2.80;;;9.60;99.90;;;;;;5004174;28;20273;-27
2020/12/19 05:43:13;;;;;;;5.88;5.30;;;9.70;99.90;;;;;;5008153;28;20599;-27
2020/12/19 05:45:43;;;;;;;1.95;1.83;;;9.70;99.90;;;;;;5009230;28;20577;-27
2020/12/19 05:48:13;;;;;;;5.18;4.70;;;9.70;99.90;;;;;;5003075;28;20203;-27
2020/12/19 05:50:43;;;;;;;2.55;2.35;;;9.80;99.90;;;;;;5000089;28;20612;-27
2020/12/19 05:53:16;;;;;;;3.38;3.08;;;9.80;99.90;;;;;;5011530;28;20269;-27
2020/12/19 05:55:47;;;;;;;3.08;2.88;;;9.80;99.90;;;;;;5006389;28;20202;-27
2020/12/19 05:58:19;;;;;;;11.80;10.55;;;9.80;99.90;;;;;;5011555;28;20299;-27
2020/12/19 06:00:50;;;;;;;2.97;2.78;;;9.90;99.90;;;;;;5005115;28;20209;-26
2020/12/19 06:03:22;;;;;;;2.78;2.58;;;9.90;99.90;;;;;;5003370;28;20293;-27
2020/12/19 06:05:53;;;;;;;2.60;2.40;;;9.90;99.90;;;;;;5005902;28;20792;-26
2020/12/19 06:08:23;;;;;;;4.85;2.88;;;9.90;99.90;;;;;;5005010;28;20638;-28
2020/12/19 06:10:57;;;;;;;2.45;2.25;;;9.90;99.90;;;;;;5009272;28;20226;-26
2020/12/19 06:13:31;;;;;;;2.55;2.35;;;10.00;99.90;;;;;;5011244;28;20274;-28
2020/12/19 06:16:05;;;;;;;2.25;2.00;;;10.00;99.90;;;;;;5011999;28;20250;-27
2020/12/19 06:18:45;;;;;;;3.38;2.20;;;10.10;99.90;;;;;;5011660;28;20199;-27
2020/12/19 06:21:16;;;;;;;3.75;2.33;;;10.10;99.90;;;;;;5011188;28;20257;-27
2020/12/19 06:23:46;;;;;;;3.45;2.05;;;10.10;99.90;;;;;;5010424;28;20195;-27
2020/12/19 06:26:18;;;;;;;2.22;2.00;;;10.10;99.90;;;;;;5000136;28;20592;-26
2020/12/19 06:28:54;;;;;;;2.15;2.03;;;10.20;99.90;;;;;;5005892;28;20596;-26
2020/12/19 06:31:24;;;;;;;2.60;2.05;;;10.20;99.90;;;;;;5007126;28;20210;-27
2020/12/19 06:33:56;;;;;;;2.40;1.90;;;10.20;99.90;;;;;;5006371;28;20643;-28
2020/12/19 06:36:27;;;;;;;2.67;1.63;;;10.20;99.90;;;;;;4996046;28;20187;-26
2020/12/19 06:39:11;;;;;;;2.10;2.00;;;10.30;99.90;;;;;;5011669;28;20254;-26
2020/12/19 06:41:48;;;;;;;2.67;1.98;;;10.30;99.90;;;;;;5004571;28;20643;-27
2020/12/19 06:44:24;;;;;;;3.03;1.90;;;10.40;99.90;;;;;;4995992;28;20198;-27
2020/12/19 06:46:55;;;;;;;2.45;1.75;;;10.40;99.90;;;;;;5011559;28;20772;-27
2020/12/19 06:49:36;;;;;;;1.85;1.63;;;10.40;99.90;;;;;;5003825;28;20296;-27
2020/12/19 06:52:11;;;;;;;2.65;1.80;;;10.30;99.90;;;;;;5008203;28;20757;-27
2020/12/19 06:54:42;;;;;;;2.15;1.95;;;10.30;99.90;;;;;;5010153;28;20219;-27
2020/12/19 06:57:27;;;;;;;2.45;1.90;;;10.40;99.90;;;;;;5009916;28;20196;-27
2020/12/19 07:00:16;;;;;;;3.75;3.45;;;10.40;99.90;;;;;;5009452;28;20207;-27
2020/12/19 07:02:56;;;;;;;1.85;1.75;;;10.50;99.90;;;;;;4995553;28;20241;-27
2020/12/19 07:05:27;;;;;;;5.22;2.05;;;10.50;99.90;;;;;;5006004;28;20253;-28
2020/12/19 07:08:22;;;;;;;2.58;1.85;;;10.50;99.90;;;;;;5010560;28;20195;-26
2020/12/19 07:10:53;;;;;;;2.05;1.30;;;10.50;99.90;;;;;;4995061;28;20381;-27
2020/12/19 07:13:26;;;;;;;4.50;1.58;;;10.50;99.90;;;;;;5010117;28;20653;-27
2020/12/19 07:15:56;;;;;;;2.55;2.20;;;10.50;99.90;;;;;;5010991;28;20192;-27
2020/12/19 07:18:28;;;;;;;1.15;1.05;;;10.50;99.90;;;;;;5009129;28;20195;-27
2020/12/19 07:20:59;;;;;;;2.00;1.75;;;10.60;99.90;;;;;;5004022;28;20254;-27
2020/12/19 07:23:29;;;;;;;1.50;1.40;;;10.60;99.90;;;;;;5010761;28;20191;-27
2020/12/19 07:26:00;;;;;;;3.88;1.92;;;10.50;99.90;;;;;;5010299;28;20192;-26
2020/12/19 07:28:31;;;;;;;3.35;1.75;;;10.60;99.90;;;;;;5008167;28;20192;-27
2020/12/19 07:31:02;;;;;;;5.05;1.23;;;10.70;99.90;;;;;;4995595;28;20212;-27
2020/12/19 07:33:32;;;;;;;4.07;1.40;;;10.60;99.90;;;;;;5010675;28;20277;-27
2020/12/19 07:36:03;;;;;;;1.10;0.95;;;10.60;99.90;;;;;;5010735;28;20206;-26
2020/12/19 07:38:33;;;;;;;1.63;1.50;;;10.70;99.90;;;;;;5010125;28;20188;-26
2020/12/19 07:41:04;;;;;;;3.20;1.75;;;10.70;99.90;;;;;;5009800;28;20286;-26
2020/12/19 07:43:35;;;;;;;1.15;1.05;;;10.70;99.90;;;;;;5009779;28;20184;-26
2020/12/19 07:46:05;;;;;;;2.95;1.75;;;10.70;99.90;;;;;;5007550;28;20188;-27
2020/12/19 07:48:37;;;;;;;2.20;1.58;;;10.70;99.90;;;;;;5001532;28;20201;-27
2020/12/19 07:51:08;;;;;;;2.35;1.75;;;10.70;99.90;;;;;;4995022;28;20204;-27
2020/12/19 07:53:44;;;;;;;2.75;1.50;;;10.60;99.90;;;;;;5010510;28;20258;-27
2020/12/19 07:56:14;;;;;;;3.88;1.80;;;10.70;99.90;;;;;;5009325;28;20191;-27
2020/12/19 07:58:48;;;;;;;1.73;1.63;;;10.70;99.90;;;;;;5010186;28;20187;-26
2020/12/19 08:01:19;;;;;;;1.38;1.27;;;10.70;99.90;;;;;;5001017;28;20564;-26
2020/12/19 08:04:02;;;;;;;2.15;1.30;;;10.70;99.90;;;;;;4995734;28;20212;-26
2020/12/19 08:06:42;;;;;;;2.60;2.40;;;10.70;99.90;;;;;;5010169;28;20642;-27
2020/12/19 08:09:30;;;;;;;1.67;1.58;;;10.70;99.90;;;;;;5009582;28;20196;-27
2020/12/19 08:12:01;;;;;;;1.40;1.20;;;10.70;99.90;;;;;;4997467;28;20232;-27
2020/12/19 08:14:34;;;;;;;2.85;1.75;;;10.70;99.90;;;;;;5000095;28;20768;-27
2020/12/19 08:17:07;;;;;;;2.63;1.35;;;10.80;99.90;;;;;;5007204;28;20223;-26
2020/12/19 08:19:40;;;;;;;3.08;1.65;;;10.70;99.90;;;;;;5009777;28;20191;-26
2020/12/19 08:22:13;;;;;;;2.30;1.30;;;10.70;99.90;;;;;;5008936;28;20588;-26
2020/12/19 08:25:03;;;;;;;3.47;1.50;;;10.80;99.90;;;;;;5005157;28;20298;-26
2020/12/19 08:27:47;;;;;;;3.55;1.30;;;10.70;99.90;;;;;;5002902;28;20686;-27
2020/12/19 08:30:29;;;;;;;1.85;1.75;;;10.70;99.90;;;;;;5009887;28;20223;-27
2020/12/19 08:33:00;;;;;;;3.75;1.90;;;10.80;99.90;;;;;;5009690;28;20199;-27
2020/12/19 08:35:32;;;;;;;1.35;1.25;;;10.90;99.90;;;;;;5007904;28;20698;-28
2020/12/19 08:38:07;;;;;;;1.30;1.20;;;10.80;99.90;;;;;;5001657;28;20202;-27
2020/12/19 08:40:38;;;;;;;2.63;1.20;;;10.90;99.90;;;;;;5009498;28;20593;-27
2020/12/19 08:43:14;;;;;;;1.23;1.15;;;10.80;99.90;;;;;;5008911;28;20200;-27
2020/12/19 08:45:46;;;;;;;1.02;1.00;;;10.90;99.90;;;;;;4998179;28;20199;-27
2020/12/19 08:48:22;;;;;;;1.40;0.65;;;10.90;99.90;;;;;;5009017;28;20261;-27
2020/12/19 08:50:56;;;;;;;2.60;0.90;;;10.90;99.90;;;;;;5009712;28;20191;-27
2020/12/19 08:53:27;;;;;;;1.13;1.02;;;10.90;99.90;;;;;;5009189;28;20235;-27
2020/12/19 08:55:57;;;;;;;2.58;1.00;;;10.90;99.90;;;;;;5007760;28;20260;-27
2020/12/19 08:58:29;;;;;;;2.97;0.90;;;10.90;99.90;;;;;;5009343;28;20198;-27
2020/12/19 09:01:01;;;;;;;2.13;0.90;;;10.90;99.90;;;;;;5009511;28;20196;-27
2020/12/19 09:03:32;;;;;;;1.10;0.63;;;10.90;99.90;;;;;;4999099;28;20678;-26
2020/12/19 09:06:04;;;;;;;0.80;0.70;;;10.90;99.90;;;;;;4997497;28;20640;-26
2020/12/19 09:08:35;;;;;;;1.02;0.80;;;10.90;99.90;;;;;;5009271;28;20236;-26
2020/12/19 09:11:06;;;;;;;0.60;0.60;;;10.90;99.90;;;;;;5007653;28;20630;-26
2020/12/19 09:13:38;;;;;;;1.10;1.10;;;10.90;99.90;;;;;;5007214;28;20218;-26
2020/12/19 09:16:13;;;;;;;1.30;1.00;;;10.90;99.90;;;;;;5006330;28;20253;-27
2020/12/19 09:18:43;;;;;;;0.80;0.80;;;10.90;99.90;;;;;;5007992;28;20270;-27
2020/12/19 09:21:21;;;;;;;0.82;0.77;;;11.00;99.90;;;;;;5009378;28;20204;-27
2020/12/19 09:23:51;;;;;;;1.30;0.80;;;10.90;99.90;;;;;;5007687;28;20277;-27
2020/12/19 09:26:21;;;;;;;1.00;0.77;;;10.90;99.90;;;;;;5004446;28;20204;-27
2020/12/19 09:28:51;;;;;;;1.05;0.82;;;10.90;99.90;;;;;;4993720;28;20561;-26
2020/12/19 09:31:22;;;;;;;0.73;0.70;;;10.90;99.90;;;;;;5007918;28;20269;-26
2020/12/19 09:33:52;;;;;;;0.60;0.60;;;11.00;99.90;;;;;;5012405;28;20215;-27
2020/12/19 09:36:22;;;;;;;1.73;0.82;;;11.00;99.90;;;;;;5001744;28;20223;-26
2020/12/19 09:38:52;;;;;;;2.17;0.88;;;11.00;99.90;;;;;;5012454;28;20199;-27
2020/12/19 09:41:24;;;;;;;2.53;0.93;;;10.90;99.90;;;;;;5004175;28;20302;-26
2020/12/19 09:43:54;;;;;;;1.90;0.77;;;10.90;99.90;;;;;;5003175;28;20200;-26
2020/12/19 09:46:25;;;;;;;1.08;0.68;;;10.90;99.90;;;;;;5012016;28;20191;-27
2020/12/19 09:48:55;;;;;;;3.20;0.80;;;10.90;99.90;;;;;;5009524;28;20197;-27
2020/12/19 09:51:31;;;;;;;1.75;1.02;;;10.90;99.90;;;;;;5006040;28;20208;-27
2020/12/19 09:54:01;;;;;;;2.97;0.60;;;10.90;99.90;;;;;;5012426;28;20590;-27
2020/12/19 09:56:37;;;;;;;0.80;0.40;;;10.90;99.90;;;;;;5009749;28;20222;-27
2020/12/19 09:59:07;;;;;;;1.05;0.70;;;10.90;99.90;;;;;;5011971;28;20674;-26
2020/12/19 10:01:39;;;;;;;1.05;0.50;;;11.00;99.90;;;;;;5012962;28;20216;-27
2020/12/19 10:04:10;;;;;;;0.63;0.60;;;11.00;99.90;;;;;;5011036;28;20667;-27
2020/12/19 10:06:40;;;;;;;0.57;0.47;;;10.90;99.90;;;;;;5002484;28;20191;-27
2020/12/19 10:09:10;;;;;;;0.70;0.50;;;11.00;99.90;;;;;;5008008;28;20205;-27
2020/12/19 10:11:40;;;;;;;0.57;0.40;;;11.00;99.90;;;;;;5005817;28;20231;-27
2020/12/19 10:14:10;;;;;;;3.20;0.70;;;11.00;99.90;;;;;;5004625;28;20523;-27
2020/12/19 10:16:42;;;;;;;2.15;0.70;;;11.00;99.90;;;;;;5006864;28;20772;-27
2020/12/19 10:19:12;;;;;;;0.95;0.50;;;11.00;99.90;;;;;;5008880;28;20255;-26
2020/12/19 10:21:42;;;;;;;1.50;0.82;;;11.10;99.90;;;;;;5012487;28;20554;-27
2020/12/19 10:24:16;;;;;;;2.17;0.60;;;11.10;99.90;;;;;;5011207;28;20675;-27
2020/12/19 10:26:48;;;;;;;0.50;0.40;;;11.00;99.90;;;;;;5011805;28;20222;-27
2020/12/19 10:29:18;;;;;;;0.60;0.50;;;11.00;99.90;;;;;;5010631;28;20187;-26
2020/12/19 10:31:49;;;;;;;0.70;0.55;;;11.00;99.90;;;;;;5011702;28;20655;-27
2020/12/19 10:34:20;;;;;;;1.33;0.50;;;11.00;99.90;;;;;;5011330;28;20308;-26
2020/12/19 10:37:00;;;;;;;1.25;0.40;;;11.00;99.90;;;;;;5012266;28;20234;-26
2020/12/19 10:39:30;;;;;;;1.00;0.60;;;11.00;99.90;;;;;;5009411;28;20257;-28
2020/12/19 10:42:08;;;;;;;1.05;0.50;;;11.10;99.90;;;;;;5011197;28;20269;-27
2020/12/19 10:44:38;;;;;;;0.50;0.40;;;11.10;99.90;;;;;;5000096;28;20247;-27
2020/12/19 10:47:09;;;;;;;0.98;0.50;;;11.00;99.90;;;;;;4991998;28;20820;-27
2020/12/19 10:49:39;;;;;;;0.77;0.40;;;11.10;99.90;;;;;;5007927;28;20189;-27
2020/12/19 10:52:09;;;;;;;0.40;0.32;;;11.10;99.90;;;;;;5010863;28;20192;-28
2020/12/19 10:54:39;;;;;;;0.70;0.45;;;11.00;99.90;;;;;;5010936;28;20868;-27
2020/12/19 10:57:09;;;;;;;0.93;0.52;;;11.00;99.90;;;;;;5010538;28;20287;-27
2020/12/19 10:59:39;;;;;;;1.25;0.50;;;11.10;99.90;;;;;;5011327;28;20587;-28
2020/12/19 11:02:10;;;;;;;0.95;0.68;;;11.10;99.90;;;;;;5010425;28;20298;-28
2020/12/19 11:04:40;;;;;;;0.50;0.47;;;11.10;99.90;;;;;;5003985;28;20564;-28
2020/12/19 11:07:10;;;;;;;0.98;0.57;;;11.10;99.90;;;;;;5005590;28;20196;-27
2020/12/19 11:09:40;;;;;;;0.65;0.45;;;11.10;99.90;;;;;;5011110;28;20199;-27
2020/12/19 11:12:10;;;;;;;0.43;0.43;;;11.10;99.90;;;;;;5010749;28;20235;-27
2020/12/19 11:14:40;;;;;;;0.40;0.30;;;11.00;99.90;;;;;;5002722;28;20235;-27
2020/12/19 11:17:11;;;;;;;0.73;0.40;;;11.00;99.90;;;;;;4996688;28;20567;-27
2020/12/19 11:19:41;;;;;;;0.40;0.30;;;11.00;99.90;;;;;;5006882;28;20224;-28
2020/12/19 11:22:11;;;;;;;0.52;0.43;;;11.00;99.90;;;;;;5010753;28;20207;-28
2020/12/19 11:24:41;;;;;;;0.50;0.30;;;11.00;99.90;;;;;;4997859;28;20197;-27
2020/12/19 11:27:12;;;;;;;0.52;0.38;;;11.00;99.90;;;;;;4994156;28;20287;-28
2020/12/19 11:29:43;;;;;;;0.40;0.20;;;10.90;99.90;;;;;;5007909;28;20198;-28
2020/12/19 11:32:14;;;;;;;0.40;0.30;;;10.90;99.90;;;;;;5008388;28;20944;-28
2020/12/19 11:34:44;;;;;;;0.57;0.50;;;10.90;99.90;;;;;;5007323;28;20226;-27
2020/12/19 11:37:17;;;;;;;0.50;0.40;;;10.80;99.90;;;;;;5007474;28;20239;-27
2020/12/19 11:39:47;;;;;;;0.95;0.40;;;10.80;99.90;;;;;;5010453;28;20191;-27
2020/12/19 11:42:17;;;;;;;0.52;0.50;;;10.70;99.90;;;;;;5002756;28;20275;-27
2020/12/19 11:44:47;;;;;;;0.60;0.43;;;10.70;99.90;;;;;;5006577;28;20200;-27
2020/12/19 11:47:19;;;;;;;2.22;0.73;;;10.70;99.90;;;;;;5005008;28;20189;-27
2020/12/19 11:49:49;;;;;;;0.68;0.50;;;10.70;99.90;;;;;;4997232;28;20536;-27
2020/12/19 11:52:19;;;;;;;0.75;0.60;;;10.70;99.90;;;;;;5004827;28;20204;-27
2020/12/19 11:54:49;;;;;;;0.50;0.50;;;10.60;99.90;;;;;;5005419;28;20357;-27
2020/12/19 11:57:19;;;;;;;0.50;0.40;;;10.50;99.90;;;;;;5009169;28;20203;-27
2020/12/19 11:59:49;;;;;;;1.30;0.50;;;10.50;99.90;;;;;;5010313;28;20552;-26
2020/12/19 12:02:20;;;;;;;0.55;0.40;;;10.50;99.90;;;;;;5011409;28;20216;-26
2020/12/19 12:04:50;;;;;;;1.70;0.60;;;10.50;99.90;;;;;;5008984;28;20619;-27
2020/12/19 12:07:20;;;;;;;0.70;0.50;;;10.50;99.90;;;;;;5009769;28;20258;-27
2020/12/19 12:09:50;;;;;;;0.45;0.40;;;10.50;99.90;;;;;;5009481;28;20204;-27
2020/12/19 12:12:20;;;;;;;1.75;0.50;;;10.60;99.90;;;;;;5009930;28;20188;-27
2020/12/19 12:14:50;;;;;;;0.40;0.40;;;10.60;99.90;;;;;;5009352;28;20290;-27
2020/12/19 12:17:21;;;;;;;1.85;0.52;;;10.70;99.90;;;;;;5002026;28;20204;-27
2020/12/19 12:19:51;;;;;;;2.05;0.47;;;10.70;99.90;;;;;;5009858;28;20204;-27
2020/12/19 12:22:21;;;;;;;0.50;0.30;;;10.60;99.90;;;;;;5009319;28;20212;-27
2020/12/19 12:24:51;;;;;;;0.40;0.40;;;10.60;99.90;;;;;;5009226;28;20199;-26
2020/12/19 12:27:23;;;;;;;0.65;0.65;;;10.50;99.90;;;;;;5009366;28;20202;-26
2020/12/19 12:29:53;;;;;;;3.50;0.73;;;10.60;99.90;;;;;;5009458;28;20235;-27
2020/12/19 12:32:24;;;;;;;0.60;0.55;;;10.60;99.90;;;;;;5009559;28;20951;-26
2020/12/19 12:34:54;;;;;;;0.80;0.80;;;10.60;99.90;;;;;;5009846;28;20226;-27
2020/12/19 12:37:24;;;;;;;0.80;0.50;;;10.70;99.90;;;;;;5009600;28;20215;-26
2020/12/19 12:39:54;;;;;;;0.57;0.50;;;10.70;99.90;;;;;;5009058;28;20219;-27
2020/12/19 12:42:25;;;;;;;1.25;0.50;;;10.60;99.90;;;;;;5009578;28;20224;-26
2020/12/19 12:44:55;;;;;;;0.60;0.60;;;10.60;99.90;;;;;;5005480;28;20203;-27
2020/12/19 12:47:26;;;;;;;1.95;0.40;;;10.70;99.90;;;;;;5009517;28;20262;-27
2020/12/19 12:49:56;;;;;;;0.52;0.52;;;10.80;99.90;;;;;;5005820;28;20192;-26
2020/12/19 12:52:26;;;;;;;0.77;0.50;;;10.80;99.90;;;;;;5005326;28;20586;-27
2020/12/19 12:54:56;;;;;;;0.52;0.50;;;10.80;99.90;;;;;;4995870;28;20356;-26
2020/12/19 12:57:26;;;;;;;0.50;0.50;;;10.80;99.90;;;;;;5008768;28;20568;-27
2020/12/19 12:59:56;;;;;;;0.75;0.52;;;10.70;99.90;;;;;;5000925;28;20281;-27
2020/12/19 13:02:27;;;;;;;0.55;0.55;;;10.70;99.90;;;;;;5007858;28;20269;-27
2020/12/19 13:04:57;;;;;;;0.82;0.50;;;10.70;99.90;;;;;;5010177;28;20239;-27
2020/12/19 13:07:27;;;;;;;0.70;0.52;;;10.70;99.90;;;;;;4994160;28;20595;-28
2020/12/19 13:09:57;;;;;;;0.65;0.55;;;10.70;99.90;;;;;;5004528;28;20274;-28
2020/12/19 13:12:32;;;;;;;0.50;0.50;;;10.70;99.90;;;;;;5012309;28;20660;-28
2020/12/19 13:15:02;;;;;;;0.88;0.50;;;10.70;99.90;;;;;;5012051;28;20287;-28